Time;durP1;ratioP1;P1;durP2;ratioP2;P2;SDS_P1;SDS_P2;PMS_P1;PMS_P2;Temp;Humidity;BMP_temperature;BMP_pressure;BME280_temperature;BME280_humidity;BME280_pressure;Samples;Min_cycle;Max_cycle;Signal;HPM_P1;HPM_P2
2022/02/11 00:04:39;;;;;;;7.85;3.55;;;7.30;78.00;;;;;;5106029;27;20065;-76
2022/02/11 00:07:04;;;;;;;7.88;2.95;;;7.30;78.00;;;;;;5135266;27;20042;-77
2022/02/11 00:09:30;;;;;;;5.95;2.95;;;7.30;78.00;;;;;;5117168;27;20031;-77
2022/02/11 00:11:56;;;;;;;7.28;2.72;;;7.30;77.80;;;;;;5135477;27;20076;-77
2022/02/11 00:14:24;;;;;;;5.78;2.60;;;7.30;77.80;;;;;;5135227;27;20039;-78
2022/02/11 00:16:50;;;;;;;5.63;2.60;;;7.20;77.30;;;;;;5135423;27;20024;-78
2022/02/11 00:19:15;;;;;;;5.85;2.90;;;7.20;77.50;;;;;;5135261;27;20075;-77
2022/02/11 00:21:41;;;;;;;4.38;2.67;;;7.20;77.20;;;;;;5135242;27;20020;-77
2022/02/11 00:24:07;;;;;;;8.45;2.63;;;7.20;76.80;;;;;;5135239;27;20023;-77
2022/02/11 00:26:36;;;;;;;8.65;2.90;;;7.20;76.50;;;;;;5135070;27;20477;-77
2022/02/11 00:33:58;;;;;;;8.07;2.55;;;7.20;76.10;;;;;;5135000;27;20481;-77
2022/02/11 00:36:34;;;;;;;3.25;2.42;;;7.20;76.10;;;;;;5134929;27;20098;-77
2022/02/11 01:03:01;;;;;;;4.10;2.53;;;7.00;79.80;;;;;;5134789;27;20038;-77
2022/02/11 01:05:27;;;;;;;5.45;2.95;;;6.90;80.10;;;;;;5134524;27;20098;-79
2022/02/11 01:07:53;;;;;;;6.65;2.55;;;7.00;80.00;;;;;;5115909;27;20122;-78
2022/02/11 01:10:20;;;;;;;4.45;2.63;;;6.90;80.30;;;;;;5134480;27;20019;-76
2022/02/11 01:12:46;;;;;;;6.10;3.15;;;6.90;80.20;;;;;;5134300;27;20092;-76
2022/02/11 01:15:12;;;;;;;7.50;3.03;;;7.00;80.30;;;;;;5134204;27;20050;-76
2022/02/11 01:17:43;;;;;;;5.45;3.20;;;7.00;80.50;;;;;;5134297;27;20168;-76
2022/02/11 01:20:17;;;;;;;4.93;2.90;;;7.00;81.90;;;;;;5134242;27;20043;-77
2022/02/11 01:23:08;;;;;;;5.43;2.65;;;6.90;82.20;;;;;;5134204;27;20474;-77
2022/02/11 01:28:12;;;;;;;7.13;3.47;;;6.90;82.30;;;;;;5133981;27;20035;-77
2022/02/11 01:33:26;;;;;;;8.70;3.08;;;6.90;83.30;;;;;;5134055;27;20068;-77
2022/02/11 01:39:08;;;;;;;5.90;4.10;;;6.80;83.50;;;;;;5116057;27;20057;-77
2022/02/11 01:47:25;;;;;;;5.97;4.22;;;6.70;82.90;;;;;;5133843;27;20042;-76
2022/02/11 01:55:53;;;;;;;8.23;4.70;;;6.50;82.90;;;;;;5134111;27;20034;-76
2022/02/11 02:04:03;;;;;;;8.55;4.93;;;6.30;83.20;;;;;;5133859;27;20019;-75
2022/02/11 02:09:43;;;;;;;8.57;5.15;;;6.40;83.30;;;;;;5133721;27;20045;-76
2022/02/11 02:27:51;;;;;;;12.70;5.50;;;6.20;83.60;;;;;;5133559;27;20045;-78
2022/02/11 02:57:45;;;;;;;9.57;6.13;;;6.10;85.40;;;;;;5137349;27;20048;-76
2022/02/11 03:00:51;;;;;;;8.50;5.15;;;6.10;85.30;;;;;;5136858;27;20110;-77
2022/02/11 03:50:01;;;;;;;4.90;2.80;;;5.60;85.70;;;;;;5136061;27;20399;-77
2022/02/11 03:55:31;;;;;;;4.20;2.45;;;5.60;85.00;;;;;;5135823;27;20015;-77
2022/02/11 04:20:28;;;;;;;3.30;1.92;;;5.30;84.20;;;;;;5135579;27;20042;-76
2022/02/11 04:53:37;;;;;;;5.20;2.95;;;4.80;86.20;;;;;;5134789;27;20485;-77
2022/02/11 04:55:43;;;;;;;2.70;1.60;;;4.80;86.50;;;;;;5134337;27;20079;-77
2022/02/11 05:00:53;;;;;;;1.45;1.23;;;4.70;86.40;;;;;;5134814;27;20062;-77
2022/02/11 05:03:19;;;;;;;1.70;1.10;;;4.70;86.20;;;;;;5134352;27;20050;-77
2022/02/11 05:05:51;;;;;;;2.90;1.88;;;4.60;86.30;;;;;;5134396;27;20051;-77
2022/02/11 05:08:16;;;;;;;3.90;1.98;;;4.60;85.80;;;;;;5134367;27;20035;-77
2022/02/11 05:10:43;;;;;;;0.75;0.60;;;4.60;86.00;;;;;;5134378;27;20106;-76
2022/02/11 05:13:08;;;;;;;0.88;0.70;;;4.60;85.80;;;;;;5134216;27;20015;-77
2022/02/11 05:15:34;;;;;;;0.80;0.65;;;4.60;85.90;;;;;;5133386;27;20043;-76
2022/02/11 05:18:01;;;;;;;1.20;0.77;;;4.50;86.60;;;;;;5134113;27;20164;-77
2022/02/11 05:20:26;;;;;;;0.75;0.60;;;4.40;87.10;;;;;;5134194;27;20451;-77
2022/02/11 05:22:52;;;;;;;0.50;0.50;;;4.40;86.90;;;;;;5134136;27;20031;-76
2022/02/11 05:25:17;;;;;;;0.43;0.43;;;4.30;87.30;;;;;;5134121;27;20023;-78
2022/02/11 05:27:43;;;;;;;0.50;0.50;;;4.20;87.50;;;;;;5134057;27;20054;-78
2022/02/11 05:30:09;;;;;;;1.40;0.75;;;4.10;87.90;;;;;;5134033;27;20023;-77
2022/02/11 05:32:35;;;;;;;1.45;0.70;;;4.00;88.50;;;;;;5134052;27;20558;-77
2022/02/11 05:35:00;;;;;;;1.35;0.30;;;3.80;87.70;;;;;;5133889;27;20132;-77
2022/02/11 05:37:26;;;;;;;1.35;0.50;;;3.60;87.10;;;;;;5133897;27;20023;-78
2022/02/11 05:39:52;;;;;;;0.25;0.20;;;3.40;87.00;;;;;;5134055;27;20471;-77
2022/02/11 05:42:18;;;;;;;0.63;0.40;;;3.30;87.50;;;;;;5133918;27;20027;-78
2022/02/11 05:44:43;;;;;;;0.30;0.30;;;3.10;88.20;;;;;;5133749;27;20038;-77
2022/02/11 05:47:09;;;;;;;0.80;0.45;;;3.00;88.70;;;;;;5133694;27;20034;-77
2022/02/11 05:49:34;;;;;;;1.65;0.68;;;3.00;89.00;;;;;;5133873;27;20443;-78
2022/02/11 05:52:00;;;;;;;0.70;0.50;;;3.00;89.20;;;;;;5133781;27;20027;-78
2022/02/11 05:54:25;;;;;;;0.73;0.60;;;2.90;89.20;;;;;;5133820;28;20097;-78
2022/02/11 05:56:51;;;;;;;0.70;0.50;;;2.90;90.00;;;;;;5115237;28;20027;-78
2022/02/11 05:59:17;;;;;;;1.42;0.68;;;2.90;89.80;;;;;;5133762;27;20030;-79
2022/02/11 06:01:43;;;;;;;1.00;0.60;;;2.90;89.60;;;;;;5133636;27;20063;-78
2022/02/11 06:04:09;;;;;;;2.63;0.85;;;2.80;89.90;;;;;;5133696;27;20134;-78
2022/02/11 06:06:34;;;;;;;1.45;0.82;;;2.80;89.80;;;;;;5133442;27;20493;-78
2022/02/11 06:09:00;;;;;;;2.03;1.02;;;2.90;90.00;;;;;;5133642;27;20497;-79
2022/02/11 06:11:29;;;;;;;5.05;1.05;;;2.90;89.70;;;;;;5133681;27;20046;-78
2022/02/11 06:13:56;;;;;;;1.30;1.00;;;2.90;89.60;;;;;;5133374;27;20027;-78
2022/02/11 06:16:21;;;;;;;1.92;1.20;;;2.90;89.80;;;;;;5115273;28;20078;-76
2022/02/11 06:18:47;;;;;;;1.67;1.20;;;2.90;90.10;;;;;;5133505;27;20475;-77
2022/02/11 06:21:12;;;;;;;2.65;1.55;;;2.90;89.60;;;;;;5133349;27;20023;-78
2022/02/11 06:23:38;;;;;;;3.10;2.20;;;2.90;89.70;;;;;;5133361;27;20031;-77
2022/02/11 06:26:03;;;;;;;2.90;1.75;;;2.80;89.10;;;;;;5134094;27;20064;-78
2022/02/11 06:28:29;;;;;;;2.20;1.80;;;2.80;89.40;;;;;;5136882;27;20046;-79
2022/02/11 06:30:55;;;;;;;4.22;2.30;;;2.80;89.80;;;;;;5136560;27;20026;-78
2022/02/11 06:33:20;;;;;;;5.25;3.28;;;2.70;90.00;;;;;;5118653;27;20022;-79
2022/02/11 06:35:47;;;;;;;10.40;5.00;;;2.70;89.80;;;;;;5118421;27;20025;-78
2022/02/11 06:38:12;;;;;;;10.43;5.40;;;2.70;90.10;;;;;;5137005;27;20029;-78
2022/02/11 06:40:38;;;;;;;18.77;7.40;;;2.60;90.00;;;;;;5137060;27;20445;-78
2022/02/11 06:43:06;;;;;;;15.20;7.05;;;2.60;90.40;;;;;;5136900;27;20027;-77
2022/02/11 06:45:32;;;;;;;17.17;7.57;;;2.60;90.30;;;;;;5137144;27;20076;-78
2022/02/11 06:47:58;;;;;;;22.38;7.72;;;2.50;90.60;;;;;;5136851;27;20479;-78
2022/02/11 06:50:23;;;;;;;16.92;7.20;;;2.50;90.40;;;;;;5136911;27;20054;-76
2022/02/11 06:52:49;;;;;;;19.38;7.93;;;2.40;90.30;;;;;;5136832;27;20026;-78
2022/02/11 06:55:15;;;;;;;13.75;7.95;;;2.40;90.80;;;;;;5136890;27;20023;-78
2022/02/11 06:57:42;;;;;;;10.75;6.30;;;2.50;90.50;;;;;;5136747;27;20027;-78
2022/02/11 07:00:09;;;;;;;15.63;8.20;;;2.50;90.60;;;;;;5136687;27;20015;-78
2022/02/11 07:02:35;;;;;;;16.23;7.35;;;2.70;90.70;;;;;;5136585;27;20034;-77
2022/02/11 07:05:02;;;;;;;12.95;8.45;;;2.80;89.90;;;;;;5136494;27;20020;-77
2022/02/11 07:07:27;;;;;;;9.05;5.60;;;2.80;89.40;;;;;;5136214;27;20035;-78
2022/02/11 07:09:54;;;;;;;8.43;4.90;;;2.80;89.60;;;;;;5135931;27;20019;-77
2022/02/11 07:12:20;;;;;;;7.63;4.05;;;2.90;90.00;;;;;;5136334;27;20053;-76
2022/02/11 07:14:45;;;;;;;7.70;4.13;;;3.00;89.50;;;;;;5135835;27;20047;-77
2022/02/11 07:17:12;;;;;;;9.45;4.20;;;3.00;88.30;;;;;;5135811;27;20481;-78
2022/02/11 07:19:38;;;;;;;5.35;3.55;;;3.10;88.20;;;;;;5136130;27;20023;-77
2022/02/11 07:22:04;;;;;;;5.50;2.90;;;3.10;88.10;;;;;;5136050;27;20023;-78
2022/02/11 07:24:30;;;;;;;5.88;2.80;;;3.10;87.80;;;;;;5136273;27;20053;-83
2022/02/11 07:26:56;;;;;;;6.53;3.25;;;3.20;88.80;;;;;;5136859;27;20030;-88
2022/02/11 07:29:22;;;;;;;3.55;2.47;;;3.90;94.30;;;;;;5139328;27;20031;-90
2022/02/11 07:31:48;;;;;;;3.67;1.70;;;4.70;91.60;;;;;;5121165;27;20045;-94
2022/02/11 07:34:13;;;;;;;4.72;1.50;;;5.40;86.60;;;;;;5118931;27;20050;-85
2022/02/11 07:36:39;;;;;;;7.57;2.17;;;5.70;83.00;;;;;;5137606;27;20099;-89
2022/02/11 07:39:05;;;;;;;3.75;2.17;;;6.20;81.90;;;;;;5136188;27;20027;-90
2022/02/11 07:41:31;;;;;;;5.22;2.15;;;6.90;78.50;;;;;;5118003;27;20023;-82
2022/02/11 07:43:57;;;;;;;3.95;1.98;;;7.00;74.00;;;;;;5136092;27;20071;-81
2022/02/11 07:46:22;;;;;;;5.45;2.10;;;7.20;71.60;;;;;;5117950;27;20022;-81
2022/02/11 07:48:48;;;;;;;3.20;1.98;;;7.50;71.40;;;;;;5136539;27;20186;-82
2022/02/11 07:51:14;;;;;;;3.08;1.75;;;7.60;68.20;;;;;;5137025;27;20490;-83
2022/02/11 07:53:39;;;;;;;3.13;1.92;;;7.40;67.00;;;;;;5136018;27;20031;-82
2022/02/11 07:56:05;;;;;;;5.38;2.10;;;7.30;66.90;;;;;;5135964;27;20034;-82
2022/02/11 07:58:31;;;;;;;8.90;1.70;;;7.40;66.90;;;;;;5118001;27;20224;-80
2022/02/11 08:01:00;;;;;;;3.22;1.50;;;7.10;66.40;;;;;;5135351;27;20114;-78
2022/02/11 08:03:26;;;;;;;3.45;1.40;;;6.90;66.30;;;;;;5136199;27;20019;-79
2022/02/11 08:05:52;;;;;;;6.38;2.00;;;6.70;66.50;;;;;;5136807;27;20539;-78
2022/02/11 08:08:20;;;;;;;3.92;2.00;;;6.50;67.40;;;;;;5136348;27;20088;-79
2022/02/11 08:10:46;;;;;;;8.10;3.47;;;6.50;67.40;;;;;;5136555;27;20459;-79
2022/02/11 08:13:11;;;;;;;5.57;2.17;;;6.50;66.60;;;;;;5136376;27;20023;-79
2022/02/11 08:15:37;;;;;;;3.95;1.98;;;6.30;66.70;;;;;;5118123;27;20054;-78
2022/02/11 08:18:02;;;;;;;4.38;2.20;;;6.20;67.40;;;;;;5135721;27;20031;-79
2022/02/11 08:20:28;;;;;;;4.28;2.13;;;6.10;68.10;;;;;;5135244;27;20031;-77
2022/02/11 08:22:53;;;;;;;6.95;2.28;;;5.90;66.70;;;;;;5134897;27;20160;-76
2022/02/11 08:25:19;;;;;;;9.15;2.88;;;5.70;67.10;;;;;;5134807;27;20034;-78
2022/02/11 08:27:47;;;;;;;4.90;2.60;;;5.40;67.90;;;;;;5134811;27;20456;-77
2022/02/11 08:30:14;;;;;;;4.75;2.10;;;5.40;69.00;;;;;;5134781;27;20372;-78
2022/02/11 08:32:41;;;;;;;5.65;2.10;;;5.40;69.40;;;;;;5134810;27;20026;-76
2022/02/11 08:35:07;;;;;;;7.82;2.83;;;5.30;69.70;;;;;;5134689;27;20042;-78
2022/02/11 08:37:32;;;;;;;4.45;2.72;;;5.10;70.30;;;;;;5134644;27;20497;-77
2022/02/11 08:39:58;;;;;;;7.63;2.85;;;5.00;70.60;;;;;;5134351;27;20026;-75
2022/02/11 08:42:23;;;;;;;5.43;2.50;;;4.90;71.50;;;;;;5134399;27;20098;-76
2022/02/11 08:44:49;;;;;;;3.72;2.38;;;4.90;71.20;;;;;;5134627;27;20020;-76
2022/02/11 08:47:15;;;;;;;4.57;2.15;;;5.00;69.50;;;;;;5134390;27;20046;-76
2022/02/11 08:49:41;;;;;;;6.93;2.55;;;4.90;69.10;;;;;;5115952;27;20031;-77
2022/02/11 08:52:08;;;;;;;7.35;2.47;;;5.00;69.20;;;;;;5134360;27;20027;-76
2022/02/11 08:54:34;;;;;;;4.53;2.78;;;5.20;68.80;;;;;;5133958;27;20034;-76
2022/02/11 08:57:00;;;;;;;5.10;2.55;;;5.20;69.10;;;;;;5134071;27;20029;-78
2022/02/11 08:59:26;;;;;;;6.60;2.85;;;5.10;69.50;;;;;;5133886;27;20447;-78
2022/02/11 09:01:52;;;;;;;5.82;2.10;;;5.20;67.50;;;;;;5133632;27;20051;-77
2022/02/11 09:04:17;;;;;;;4.32;2.30;;;5.40;67.10;;;;;;5133593;27;20379;-77
2022/02/11 09:06:43;;;;;;;4.80;1.90;;;5.30;67.30;;;;;;5133537;27;20070;-77
2022/02/11 09:09:09;;;;;;;7.90;2.47;;;4.70;68.30;;;;;;5133793;27;20035;-77
2022/02/11 09:11:34;;;;;;;9.38;2.20;;;4.50;68.70;;;;;;5133729;27;20075;-77
2022/02/11 09:14:00;;;;;;;7.60;2.60;;;4.60;67.60;;;;;;5133614;27;20467;-77
2022/02/11 09:16:26;;;;;;;11.02;3.05;;;4.50;66.70;;;;;;5115365;27;20384;-76
2022/02/11 09:18:52;;;;;;;7.68;2.40;;;4.50;67.60;;;;;;5134051;27;20134;-76
2022/02/11 09:21:18;;;;;;;7.45;2.17;;;4.50;68.00;;;;;;5134044;27;20066;-77
2022/02/11 09:23:44;;;;;;;5.65;2.30;;;4.30;68.40;;;;;;5133879;27;20027;-77
2022/02/11 09:26:10;;;;;;;4.70;2.70;;;4.50;68.70;;;;;;5133892;27;20493;-76
2022/02/11 09:28:36;;;;;;;5.70;2.00;;;4.50;67.30;;;;;;5133917;27;20077;-77
2022/02/11 09:31:02;;;;;;;5.35;2.17;;;4.80;66.10;;;;;;5133419;27;20016;-78
2022/02/11 09:33:27;;;;;;;7.38;2.45;;;4.90;62.20;;;;;;5133828;27;20030;-77
2022/02/11 09:35:53;;;;;;;6.07;1.88;;;4.90;63.70;;;;;;5133618;27;20027;-76
2022/02/11 09:38:19;;;;;;;7.13;2.47;;;5.10;64.20;;;;;;5133772;27;20023;-76
2022/02/11 09:40:50;;;;;;;5.85;2.15;;;5.20;63.70;;;;;;5133367;27;20031;-77
2022/02/11 09:43:17;;;;;;;6.95;2.58;;;5.00;64.00;;;;;;5133782;27;20027;-76
2022/02/11 09:45:43;;;;;;;6.97;2.08;;;4.90;64.70;;;;;;5133653;27;20027;-76
2022/02/11 09:48:10;;;;;;;8.25;2.58;;;4.80;62.50;;;;;;5133349;27;20031;-76
2022/02/11 09:50:36;;;;;;;5.22;2.10;;;4.60;63.70;;;;;;5133564;27;20126;-76
2022/02/11 09:53:01;;;;;;;4.10;1.85;;;4.70;62.80;;;;;;5133604;27;20096;-76
2022/02/11 09:55:34;;;;;;;10.18;2.40;;;4.60;62.70;;;;;;5133577;27;20015;-78
2022/02/11 09:58:13;;;;;;;6.72;2.75;;;4.70;63.70;;;;;;5133614;27;20025;-78
2022/02/11 10:00:41;;;;;;;4.32;2.20;;;4.70;62.90;;;;;;5133487;27;20027;-76
2022/02/11 10:03:21;;;;;;;8.00;2.97;;;4.90;61.80;;;;;;5137458;27;20095;-78
2022/02/11 10:05:49;;;;;;;5.55;2.25;;;5.20;59.90;;;;;;5137654;27;20061;-78
2022/02/11 10:08:16;;;;;;;6.15;2.38;;;5.60;58.80;;;;;;5137584;27;20027;-77
2022/02/11 10:10:44;;;;;;;4.72;1.70;;;6.00;58.20;;;;;;5137614;27;20012;-76
2022/02/11 10:13:18;;;;;;;3.83;2.30;;;6.00;58.50;;;;;;5137413;27;20523;-76
2022/02/11 10:15:48;;;;;;;6.88;2.20;;;6.00;60.10;;;;;;5137308;27;20045;-76
2022/02/11 10:18:17;;;;;;;8.40;2.30;;;6.20;59.50;;;;;;5137445;27;20091;-77
2022/02/11 10:20:53;;;;;;;11.32;3.03;;;6.40;59.40;;;;;;5137424;27;20025;-74
2022/02/11 10:23:25;;;;;;;7.75;2.30;;;6.40;60.20;;;;;;5137420;27;20083;-73
2022/02/11 10:26:07;;;;;;;6.97;1.92;;;6.50;59.00;;;;;;5118251;27;20118;-77
2022/02/11 10:28:39;;;;;;;8.10;2.58;;;6.90;55.60;;;;;;5137291;27;20118;-77
2022/02/11 10:31:20;;;;;;;7.75;2.35;;;6.70;56.40;;;;;;5137089;27;20023;-77
2022/02/11 10:34:05;;;;;;;6.45;2.30;;;6.90;57.00;;;;;;5118435;27;20019;-77
2022/02/11 10:36:48;;;;;;;6.50;1.87;;;6.90;55.50;;;;;;5136596;27;20023;-77
2022/02/11 10:39:23;;;;;;;9.48;2.25;;;6.80;53.60;;;;;;5117635;27;20031;-75
2022/02/11 10:42:06;;;;;;;6.93;2.25;;;6.70;55.10;;;;;;5118200;27;20375;-76
2022/02/11 10:44:34;;;;;;;7.70;2.17;;;6.60;56.70;;;;;;5136800;27;20030;-76
2022/02/11 10:47:07;;;;;;;8.07;2.75;;;6.70;54.60;;;;;;5136289;27;20035;-77
2022/02/11 10:49:46;;;;;;;4.15;1.75;;;6.80;53.50;;;;;;5136490;27;20348;-77
2022/02/11 10:52:19;;;;;;;8.02;2.25;;;6.70;53.90;;;;;;5136548;27;20011;-76
2022/02/11 10:54:49;;;;;;;7.63;2.15;;;6.70;52.00;;;;;;5136209;27;20039;-76
2022/02/11 10:57:16;;;;;;;5.22;1.60;;;6.70;52.60;;;;;;5136698;27;20486;-76
2022/02/11 10:59:47;;;;;;;6.65;2.42;;;7.00;51.90;;;;;;5136485;27;20034;-76
2022/02/11 11:02:18;;;;;;;6.07;1.83;;;6.80;53.00;;;;;;5117879;27;20115;-78
2022/02/11 11:04:45;;;;;;;7.15;1.92;;;6.70;51.50;;;;;;5117305;27;20061;-76
2022/02/11 11:07:13;;;;;;;7.13;2.28;;;6.90;53.20;;;;;;5135841;27;20027;-76
2022/02/11 11:09:45;;;;;;;7.20;2.60;;;6.90;48.60;;;;;;5135936;27;20035;-76
2022/02/11 11:12:14;;;;;;;6.15;2.40;;;7.10;50.00;;;;;;5134764;27;20027;-77
2022/02/11 11:14:41;;;;;;;5.05;1.90;;;6.90;51.60;;;;;;5134757;27;20066;-76
2022/02/11 11:17:08;;;;;;;5.57;1.98;;;6.40;51.90;;;;;;5135564;27;20035;-75
2022/02/11 11:19:35;;;;;;;7.07;1.98;;;6.10;54.00;;;;;;5135688;27;20064;-76
2022/02/11 11:22:15;;;;;;;3.97;1.60;;;6.10;52.80;;;;;;5135926;27;20115;-75
2022/02/11 11:24:47;;;;;;;4.82;1.80;;;6.30;50.70;;;;;;5135743;27;20023;-76
2022/02/11 11:27:33;;;;;;;7.05;1.70;;;6.60;50.40;;;;;;5135644;27;20535;-76
2022/02/11 11:30:31;;;;;;;9.18;2.53;;;6.70;50.60;;;;;;5135768;27;20034;-76
2022/02/11 11:33:11;;;;;;;8.90;2.75;;;7.10;51.40;;;;;;5135871;27;20025;-77
2022/02/11 11:35:37;;;;;;;7.65;1.77;;;7.50;49.50;;;;;;5135729;27;20022;-75
2022/02/11 11:38:13;;;;;;;5.47;1.63;;;8.00;47.90;;;;;;5135821;27;20099;-76
2022/02/11 11:40:40;;;;;;;9.43;2.22;;;7.70;47.40;;;;;;5135634;27;20488;-77
2022/02/11 11:43:15;;;;;;;9.20;1.90;;;7.50;47.50;;;;;;5135541;27;20098;-77
2022/02/11 11:45:43;;;;;;;;;;;7.10;49.30;;;;;;5136138;27;20027;-77
2022/02/11 11:48:16;;;;;;;5.05;1.33;;;7.40;48.90;;;;;;5135422;27;20014;-77
2022/02/11 11:50:44;;;;;;;6.75;1.70;;;7.50;47.20;;;;;;5116589;27;20069;-77
2022/02/11 11:53:39;;;;;;;8.48;1.60;;;7.50;47.20;;;;;;5135297;27;20034;-78
2022/02/11 11:56:32;;;;;;;8.05;1.92;;;7.70;48.80;;;;;;5113403;27;20031;-77
2022/02/11 11:59:11;;;;;;;10.02;2.10;;;8.30;47.20;;;;;;5135217;27;20075;-77
2022/02/11 12:01:51;;;;;;;5.47;1.40;;;8.40;46.60;;;;;;5134905;27;20106;-77
2022/02/11 12:04:21;;;;;;;8.15;2.50;;;8.70;45.40;;;;;;5135029;27;20015;-76
2022/02/11 12:06:52;;;;;;;4.55;1.33;;;9.30;44.30;;;;;;5135368;27;20064;-76
2022/02/11 12:09:18;;;;;;;5.65;1.38;;;9.70;41.00;;;;;;5135565;27;20031;-77
2022/02/11 12:11:43;;;;;;;5.13;1.70;;;9.40;41.60;;;;;;5135441;27;20365;-77
2022/02/11 12:14:10;;;;;;;6.95;1.60;;;9.00;42.10;;;;;;5134974;27;20117;-77
2022/02/11 12:16:36;;;;;;;3.65;1.50;;;9.00;43.50;;;;;;5135215;27;20026;-77
2022/02/11 12:19:02;;;;;;;7.80;1.48;;;8.80;42.80;;;;;;5135114;27;20027;-75
2022/02/11 12:21:27;;;;;;;2.17;1.30;;;8.60;43.50;;;;;;5135110;27;20491;-77
2022/02/11 12:29:25;;;;;;;5.70;1.55;;;8.00;47.70;;;;;;5134925;27;20046;-75
2022/02/11 12:31:51;;;;;;;5.45;1.52;;;7.40;47.70;;;;;;5116404;27;20487;-76
2022/02/11 12:34:17;;;;;;;5.35;1.92;;;7.10;49.00;;;;;;5135006;27;20019;-76
2022/02/11 12:36:43;;;;;;;9.23;2.22;;;6.90;50.70;;;;;;5134791;27;20463;-75
2022/02/11 12:39:16;;;;;;;5.43;1.67;;;6.60;52.00;;;;;;5115850;27;20387;-76
2022/02/11 12:41:46;;;;;;;5.40;1.52;;;6.30;53.00;;;;;;5134613;27;20027;-75
2022/02/11 12:44:29;;;;;;;3.75;1.52;;;6.20;53.20;;;;;;5132560;27;20055;-75
2022/02/11 12:46:56;;;;;;;10.32;1.90;;;6.20;53.70;;;;;;5134050;27;20114;-74
2022/02/11 12:49:22;;;;;;;7.93;2.10;;;6.00;55.40;;;;;;5134488;27;20023;-74
2022/02/11 12:51:50;;;;;;;9.77;1.55;;;6.00;56.30;;;;;;5116189;27;20100;-74
2022/02/11 12:54:15;;;;;;;9.90;2.20;;;5.90;56.20;;;;;;5134295;27;20024;-75
2022/02/11 12:56:41;;;;;;;9.98;1.92;;;5.80;56.90;;;;;;5134279;27;20019;-77
2022/02/11 12:59:08;;;;;;;13.70;2.00;;;5.60;58.60;;;;;;5134114;27;20030;-76
2022/02/11 13:01:33;;;;;;;7.57;2.08;;;5.40;60.00;;;;;;5134169;27;20367;-76
2022/02/11 13:03:59;;;;;;;10.60;2.85;;;5.50;60.80;;;;;;5134206;27;20029;-75
2022/02/11 13:06:25;;;;;;;9.73;3.33;;;5.60;59.20;;;;;;5134124;27;20610;-76
2022/02/11 13:09:02;;;;;;;12.93;2.25;;;5.50;57.80;;;;;;5133949;27;20042;-77
2022/02/11 13:11:28;;;;;;;7.50;2.40;;;5.60;57.40;;;;;;5134140;27;20026;-74
2022/02/11 13:14:08;;;;;;;8.38;2.95;;;5.70;57.40;;;;;;5115373;27;20474;-74
2022/02/11 13:16:37;;;;;;;10.23;2.22;;;5.80;58.10;;;;;;5134180;27;20110;-75
2022/02/11 13:19:17;;;;;;;5.72;1.60;;;5.70;57.50;;;;;;5134025;27;20046;-76
2022/02/11 13:21:44;;;;;;;4.45;1.52;;;5.60;59.30;;;;;;5133757;27;20019;-77
2022/02/11 13:24:10;;;;;;;8.70;2.17;;;5.70;58.40;;;;;;5133761;27;20019;-73
2022/02/11 13:26:37;;;;;;;7.55;2.10;;;5.60;57.90;;;;;;5133804;27;20026;-75
2022/02/11 13:29:11;;;;;;;9.38;2.20;;;5.60;58.50;;;;;;5133619;27;20043;-75
2022/02/11 13:31:47;;;;;;;11.98;2.70;;;5.50;60.20;;;;;;5133481;27;20023;-73
2022/02/11 13:34:13;;;;;;;3.25;1.50;;;5.50;59.80;;;;;;5133414;27;20033;-74
2022/02/11 13:36:40;;;;;;;6.55;1.98;;;5.40;59.10;;;;;;5132730;27;20015;-76
2022/02/11 13:39:06;;;;;;;3.92;1.92;;;5.40;59.60;;;;;;5133247;27;20019;-74
2022/02/11 13:41:35;;;;;;;7.57;1.88;;;5.40;60.10;;;;;;5133311;28;20072;-75
2022/02/11 13:44:07;;;;;;;5.45;1.83;;;5.40;59.60;;;;;;5133299;28;20023;-78
2022/02/11 13:46:40;;;;;;;11.60;2.13;;;5.40;58.80;;;;;;5133555;28;20015;-78
2022/02/11 13:49:20;;;;;;;9.98;2.38;;;5.40;58.80;;;;;;5133237;28;20065;-77
2022/02/11 13:53:01;;;;;;;5.65;2.00;;;5.30;58.50;;;;;;5133503;28;20019;-77
2022/02/11 13:55:00;;;;;;;5.68;2.05;;;4.90;60.30;;;;;;5133282;28;20076;-78
2022/02/11 13:57:26;;;;;;;4.22;1.77;;;4.90;60.40;;;;;;5133680;28;20475;-77
2022/02/11 13:59:52;;;;;;;6.40;1.80;;;5.00;59.90;;;;;;5133430;28;20063;-76
2022/02/11 14:02:20;;;;;;;7.75;1.90;;;5.10;59.90;;;;;;5133181;28;20091;-77
2022/02/11 14:04:58;;;;;;;5.22;2.05;;;5.20;60.00;;;;;;5133247;28;20062;-76
2022/02/11 14:07:24;;;;;;;8.13;2.08;;;5.20;59.00;;;;;;5133205;28;20114;-76
2022/02/11 14:09:49;;;;;;;6.10;2.30;;;5.30;57.20;;;;;;5133265;28;20059;-75
2022/02/11 14:12:20;;;;;;;5.00;2.03;;;5.30;56.30;;;;;;5114600;28;20058;-74
2022/02/11 14:14:58;;;;;;;7.20;2.13;;;5.30;56.80;;;;;;5133095;28;20043;-75
2022/02/11 14:17:26;;;;;;;10.18;2.22;;;5.40;56.70;;;;;;5133535;28;20058;-76
2022/02/11 14:19:52;;;;;;;5.47;2.10;;;5.50;55.90;;;;;;5133280;28;20026;-73
2022/02/11 14:22:17;;;;;;;5.53;1.70;;;5.50;55.80;;;;;;5133164;28;20023;-78
2022/02/11 14:24:44;;;;;;;8.40;2.20;;;5.60;54.90;;;;;;5132826;28;20023;-76
2022/02/11 14:27:10;;;;;;;5.65;2.28;;;5.50;54.90;;;;;;5133126;28;20023;-74
2022/02/11 14:29:36;;;;;;;6.13;2.42;;;5.60;54.80;;;;;;5133075;28;20054;-74
2022/02/11 14:32:04;;;;;;;4.80;2.47;;;5.70;54.90;;;;;;5133063;28;20019;-74
2022/02/11 14:34:29;;;;;;;11.15;2.95;;;5.70;54.90;;;;;;5132951;28;20031;-75
2022/02/11 14:36:55;;;;;;;3.40;1.75;;;5.80;53.90;;;;;;5132918;28;20087;-74
2022/02/11 14:39:20;;;;;;;5.80;1.73;;;7.10;52.20;;;;;;5132792;28;20356;-74
2022/02/11 14:41:51;;;;;;;4.30;1.52;;;10.30;44.80;;;;;;5132969;28;20417;-76
2022/02/11 14:44:19;;;;;;;6.18;1.67;;;13.40;36.10;;;;;;5132457;28;20088;-74
2022/02/11 14:46:46;;;;;;;6.63;1.90;;;16.10;30.80;;;;;;5133197;27;20031;-77
2022/02/11 14:49:12;;;;;;;7.60;1.48;;;18.50;25.20;;;;;;5136563;27;20477;-76
2022/02/11 14:51:38;;;;;;;5.68;2.03;;;18.90;22.60;;;;;;5136688;27;20061;-78
2022/02/11 14:54:10;;;;;;;3.83;1.58;;;18.70;20.50;;;;;;5136515;27;20031;-79
2022/02/11 14:56:36;;;;;;;6.68;1.50;;;19.60;20.40;;;;;;5136572;27;20071;-78
2022/02/11 14:59:02;;;;;;;7.43;2.38;;;20.80;18.30;;;;;;5136539;27;20023;-77
2022/02/11 15:01:28;;;;;;;4.30;1.42;;;21.50;17.00;;;;;;5136552;27;20027;-77
2022/02/11 15:03:55;;;;;;;4.90;1.70;;;19.50;16.70;;;;;;5118010;27;20055;-75
2022/02/11 15:06:20;;;;;;;4.00;1.30;;;17.00;18.90;;;;;;5136511;27;20015;-75
2022/02/11 15:08:47;;;;;;;5.07;1.85;;;13.70;22.80;;;;;;5117936;27;20391;-75
2022/02/11 15:11:13;;;;;;;5.45;1.77;;;12.20;28.10;;;;;;5136181;27;20011;-76
2022/02/11 15:13:39;;;;;;;4.63;1.80;;;11.20;31.70;;;;;;5136064;27;20020;-78
2022/02/11 15:16:06;;;;;;;4.60;2.08;;;10.60;34.20;;;;;;5136056;27;20051;-76
2022/02/11 15:18:31;;;;;;;4.13;1.33;;;10.70;35.90;;;;;;5136053;27;20065;-74
2022/02/11 15:21:04;;;;;;;5.60;2.08;;;10.60;35.90;;;;;;5135788;27;20030;-77
2022/02/11 15:23:35;;;;;;;3.13;1.30;;;10.10;37.00;;;;;;5135754;27;20041;-75
2022/02/11 15:26:06;;;;;;;4.28;1.30;;;9.10;39.00;;;;;;5135920;27;20049;-76
2022/02/11 15:28:33;;;;;;;7.50;1.70;;;8.50;40.50;;;;;;5135706;27;20035;-73
2022/02/11 15:30:59;;;;;;;9.27;1.95;;;7.80;42.90;;;;;;5117184;27;20023;-77
2022/02/11 15:33:25;;;;;;;5.38;1.88;;;7.40;45.00;;;;;;5135651;27;20328;-76
2022/02/11 15:35:50;;;;;;;7.70;2.72;;;7.30;45.70;;;;;;5135449;27;20015;-76
2022/02/11 15:38:16;;;;;;;5.78;1.90;;;6.90;47.40;;;;;;5135317;27;20110;-74
2022/02/11 15:40:42;;;;;;;9.30;3.00;;;6.70;48.00;;;;;;5135322;27;20015;-75
2022/02/11 15:43:08;;;;;;;9.77;3.00;;;6.60;48.90;;;;;;5135534;27;20033;-76
2022/02/11 15:45:34;;;;;;;12.25;3.17;;;6.50;49.90;;;;;;5135579;27;20026;-76
2022/02/11 15:47:59;;;;;;;10.38;4.03;;;6.40;50.40;;;;;;5134749;27;20435;-76
2022/02/11 15:50:25;;;;;;;10.02;4.25;;;6.40;50.30;;;;;;5134652;27;20122;-74
2022/02/11 15:52:52;;;;;;;9.27;3.28;;;6.30;50.90;;;;;;5135331;27;20035;-77
2022/02/11 15:55:19;;;;;;;13.20;3.45;;;6.20;52.00;;;;;;5135180;27;20034;-76
2022/02/11 15:57:45;;;;;;;10.55;2.70;;;6.10;52.30;;;;;;5135219;27;20019;-75
2022/02/11 16:00:11;;;;;;;8.32;2.20;;;5.80;53.30;;;;;;5134651;27;20132;-77
2022/02/11 16:02:37;;;;;;;5.07;1.90;;;5.60;53.60;;;;;;5135178;27;20034;-77
2022/02/11 16:05:05;;;;;;;5.00;2.42;;;5.60;54.90;;;;;;5134882;27;20020;-77
2022/02/11 16:07:31;;;;;;;11.18;2.55;;;5.40;54.10;;;;;;5135091;27;20031;-75
2022/02/11 16:09:57;;;;;;;8.68;2.58;;;5.30;54.10;;;;;;5134864;27;20575;-73
2022/02/11 16:12:22;;;;;;;7.43;3.50;;;5.20;54.80;;;;;;5116253;27;20034;-74
2022/02/11 16:14:48;;;;;;;12.13;3.33;;;5.10;55.30;;;;;;5116393;27;20047;-75
2022/02/11 16:17:14;;;;;;;8.20;3.00;;;5.00;55.40;;;;;;5134974;27;20047;-77
2022/02/11 16:19:40;;;;;;;4.60;2.13;;;5.00;55.80;;;;;;5116069;27;20078;-77
2022/02/11 16:22:06;;;;;;;7.70;2.47;;;5.00;55.80;;;;;;5134727;27;20027;-77
2022/02/11 16:24:33;;;;;;;6.35;2.67;;;5.00;56.00;;;;;;5116243;27;20031;-75
2022/02/11 16:27:00;;;;;;;7.03;3.03;;;4.90;56.60;;;;;;5135828;27;20019;-73
2022/02/11 16:29:27;;;;;;;7.03;2.90;;;4.90;57.10;;;;;;5139029;27;20027;-77
2022/02/11 16:31:53;;;;;;;7.57;3.20;;;4.80;57.50;;;;;;5116437;27;20428;-77
2022/02/11 16:34:19;;;;;;;9.15;2.72;;;4.80;57.90;;;;;;5134830;27;20065;-78
2022/02/11 16:36:45;;;;;;;6.45;3.00;;;4.90;57.90;;;;;;5134924;27;20019;-78